createdAt,value
2023-06-19T00:00:58.805Z,11.97
2023-06-19T00:02:31.397Z,12.07
2023-06-19T00:04:06.430Z,11.70
2023-06-19T00:05:38.901Z,11.63
2023-06-19T00:07:12.330Z,11.73
2023-06-19T00:08:44.812Z,11.60
2023-06-19T00:10:18.236Z,11.70
2023-06-19T00:11:51.691Z,11.07
2023-06-19T00:13:25.127Z,11.47
2023-06-19T00:14:57.616Z,12.00
2023-06-19T00:16:31.055Z,12.10
2023-06-19T00:18:05.458Z,11.77
2023-06-19T00:19:39.264Z,12.53
2023-06-19T00:21:12.744Z,11.90
2023-06-19T00:22:46.275Z,12.10
2023-06-19T00:24:19.859Z,12.03
2023-06-19T00:25:53.345Z,11.37
2023-06-19T00:27:27.469Z,12.47
2023-06-19T00:29:01.515Z,11.40
2023-06-19T00:30:35.904Z,12.10
2023-06-19T00:32:09.688Z,12.53
2023-06-19T00:33:43.149Z,12.40
2023-06-19T00:35:19.085Z,12.97
2023-06-19T00:36:57.502Z,12.30
2023-06-19T00:38:31.032Z,11.87
2023-06-19T00:40:04.505Z,12.67
2023-06-19T00:41:37.412Z,12.77
2023-06-19T00:43:11.345Z,12.97
2023-06-19T00:44:44.633Z,12.93
2023-06-19T00:46:18.157Z,12.27
2023-06-19T00:47:50.882Z,12.43
2023-06-19T00:49:24.477Z,12.57
2023-06-19T00:50:59.619Z,12.70
2023-06-19T00:52:33.091Z,12.57
2023-06-19T00:54:07.365Z,12.63
2023-06-19T00:55:41.026Z,12.63
2023-06-19T00:57:14.989Z,13.10
2023-06-19T00:58:48.455Z,12.33
2023-06-19T01:00:21.073Z,12.97
2023-06-19T01:01:54.704Z,12.67
2023-06-19T01:03:27.522Z,12.23
2023-06-19T01:05:01.116Z,12.20
2023-06-19T01:06:46.761Z,12.60
2023-06-19T01:08:26.641Z,12.40
2023-06-19T01:10:05.086Z,12.23
2023-06-19T01:11:43.129Z,13.13
2023-06-19T01:13:19.962Z,12.07
2023-06-19T01:14:56.152Z,13.13
2023-06-19T01:16:31.250Z,12.50
2023-06-19T01:18:05.062Z,12.90
2023-06-19T01:19:38.592Z,13.10
2023-06-19T01:21:12.057Z,12.90
2023-06-19T01:22:46.854Z,13.17
2023-06-19T01:24:20.547Z,13.13
2023-06-19T01:25:53.090Z,13.07
2023-06-19T01:27:30.779Z,12.93
2023-06-19T01:29:05.204Z,12.10
2023-06-19T01:30:40.137Z,12.93
2023-06-19T01:32:16.293Z,12.37
2023-06-19T01:33:50.376Z,11.97
2023-06-19T01:35:26.133Z,12.73
2023-06-19T01:36:59.949Z,12.07
2023-06-19T01:38:33.865Z,13.07
2023-06-19T01:40:11.763Z,13.27
2023-06-19T01:41:45.325Z,13.40
2023-06-19T01:43:19.254Z,13.40
2023-06-19T01:44:52.733Z,13.00
2023-06-19T01:46:26.284Z,14.00
2023-06-19T01:47:59.991Z,13.83
2023-06-19T01:49:33.672Z,13.47
2023-06-19T01:51:07.327Z,14.13
2023-06-19T01:52:40.996Z,13.33
2023-06-19T01:54:15.761Z,14.33
2023-06-19T01:55:49.353Z,14.00
2023-06-19T01:57:23.140Z,13.43
2023-06-19T01:58:56.660Z,13.60
2023-06-19T02:00:31.605Z,14.07
2023-06-19T02:02:05.202Z,13.77
2023-06-19T02:03:38.716Z,13.90
2023-06-19T02:05:12.432Z,14.47
2023-06-19T02:06:46.015Z,13.73
2023-06-19T02:08:18.437Z,13.87
2023-06-19T02:09:53.237Z,14.10
2023-06-19T02:11:26.662Z,13.37
2023-06-19T02:13:01.838Z,13.67
2023-06-19T02:14:35.302Z,14.03
2023-06-19T02:16:08.806Z,14.67
2023-06-19T02:17:43.562Z,14.23
2023-06-19T02:19:17.054Z,13.83
2023-06-19T02:20:50.603Z,14.17
2023-06-19T02:22:23.087Z,13.60
2023-06-19T02:23:56.572Z,14.07
2023-06-19T02:25:30.413Z,13.37
2023-06-19T02:27:03.977Z,13.47
2023-06-19T02:28:37.426Z,14.00
2023-06-19T02:30:10.513Z,12.87
2023-06-19T02:31:44.301Z,14.23
2023-06-19T02:33:16.716Z,14.00
2023-06-19T02:34:50.152Z,14.30
2023-06-19T02:36:22.595Z,14.03
2023-06-19T02:37:56.055Z,14.53
2023-06-19T02:39:29.839Z,14.40
2023-06-19T02:41:03.735Z,13.77
2023-06-19T02:42:37.253Z,13.97
2023-06-19T02:44:10.718Z,13.97
2023-06-19T02:45:44.296Z,13.80
2023-06-19T02:47:16.816Z,14.93
2023-06-19T02:48:50.206Z,14.30
2023-06-19T02:50:23.022Z,14.07
2023-06-19T02:51:56.716Z,14.23
2023-06-19T02:53:30.145Z,14.77
2023-06-19T02:55:03.617Z,14.67
2023-06-19T02:56:38.402Z,15.67
2023-06-19T02:58:11.771Z,15.43
2023-06-19T02:59:46.613Z,14.57
2023-06-19T03:01:22.040Z,14.73
2023-06-19T03:02:54.872Z,15.27
2023-06-19T03:04:29.575Z,15.37
2023-06-19T03:06:03.263Z,15.33
2023-06-19T03:07:35.725Z,14.60
2023-06-19T03:09:13.563Z,14.10
2023-06-19T03:10:47.069Z,14.30
2023-06-19T03:12:20.894Z,15.30
2023-06-19T03:13:54.966Z,14.33
2023-06-19T03:15:27.617Z,13.97
2023-06-19T03:17:01.421Z,13.93
2023-06-19T03:18:35.491Z,13.97
2023-06-19T03:20:12.917Z,14.27
2023-06-19T03:21:50.681Z,14.47
2023-06-19T03:23:23.371Z,13.93
2023-06-19T03:24:57.046Z,14.43
2023-06-19T03:26:29.695Z,14.37
2023-06-19T03:28:08.307Z,14.17
2023-06-19T03:29:42.293Z,13.93
2023-06-19T03:31:18.295Z,14.27
2023-06-19T03:32:51.832Z,14.10
2023-06-19T03:34:44.909Z,14.77
2023-06-19T03:36:18.902Z,14.23
2023-06-19T03:37:56.664Z,13.63
2023-06-19T03:39:30.060Z,13.57
2023-06-19T03:41:10.237Z,13.87
2023-06-19T03:42:44.578Z,13.20
2023-06-19T03:44:20.614Z,13.17
2023-06-19T03:45:54.119Z,13.67
2023-06-19T03:47:27.910Z,13.30
2023-06-19T03:49:01.419Z,12.80
2023-06-19T03:50:34.785Z,13.60
2023-06-19T03:52:08.708Z,13.17
2023-06-19T03:53:41.862Z,13.67
2023-06-19T03:55:15.340Z,13.37
2023-06-19T03:56:48.930Z,14.17
2023-06-19T03:58:21.491Z,13.67
2023-06-19T03:59:56.429Z,12.60
2023-06-19T04:01:30.015Z,13.10
2023-06-19T04:03:02.619Z,13.67
2023-06-19T04:04:36.526Z,13.03
2023-06-19T04:06:11.674Z,12.90
2023-06-19T04:07:46.895Z,12.87
2023-06-19T04:09:21.796Z,12.40
2023-06-19T04:10:55.435Z,13.10
2023-06-19T04:12:28.845Z,12.20
2023-06-19T04:14:02.860Z,13.63
2023-06-19T04:15:38.593Z,12.83
2023-06-19T04:17:12.332Z,13.10
2023-06-19T04:18:45.988Z,13.00
2023-06-19T04:20:19.450Z,12.10
2023-06-19T04:21:55.761Z,12.83
2023-06-19T04:23:29.513Z,12.53
2023-06-19T04:25:02.929Z,12.57
2023-06-19T04:26:36.444Z,12.37
2023-06-19T04:28:09.873Z,12.37
2023-06-19T04:29:43.393Z,12.30
2023-06-19T04:31:19.180Z,12.23
2023-06-19T04:32:54.215Z,11.30
2023-06-19T04:34:28.067Z,11.83
2023-06-19T04:36:01.619Z,11.93
2023-06-19T04:37:35.209Z,12.10
2023-06-19T04:39:08.859Z,11.70
2023-06-19T04:40:44.390Z,11.77
2023-06-19T04:42:21.498Z,11.40
2023-06-19T04:43:55.054Z,11.27
2023-06-19T04:45:28.584Z,11.40
2023-06-19T04:47:03.645Z,10.97
2023-06-19T04:48:37.751Z,11.17
2023-06-19T04:50:10.322Z,11.93
2023-06-19T04:51:43.779Z,11.37
2023-06-19T04:53:17.271Z,11.70
2023-06-19T04:54:49.711Z,11.40
2023-06-19T04:56:23.354Z,11.40
2023-06-19T04:57:57.250Z,11.87
2023-06-19T04:59:31.389Z,11.30
2023-06-19T05:01:04.908Z,11.10
2023-06-19T05:02:39.915Z,11.07
2023-06-19T05:04:13.471Z,11.77
2023-06-19T05:05:47.090Z,11.77
2023-06-19T05:07:20.598Z,11.47
2023-06-19T05:08:54.338Z,11.20
2023-06-19T05:10:27.985Z,11.53
2023-06-19T05:12:01.536Z,11.07
2023-06-19T05:13:34.970Z,14.43
2023-06-19T05:15:08.081Z,11.33
2023-06-19T05:16:41.582Z,11.97
2023-06-19T05:18:15.532Z,11.33
2023-06-19T05:19:49.032Z,11.40
2023-06-19T05:21:22.707Z,10.23
2023-06-19T05:22:56.876Z,11.23
2023-06-19T05:24:30.456Z,10.80
2023-06-19T05:26:03.873Z,10.50
2023-06-19T05:27:37.471Z,10.50
2023-06-19T05:29:12.198Z,10.90
2023-06-19T05:30:45.863Z,10.67
2023-06-19T05:32:18.310Z,10.27
2023-06-19T05:33:53.132Z,10.33
2023-06-19T05:35:26.933Z,10.63
2023-06-19T05:37:01.857Z,10.10
2023-06-19T05:38:35.372Z,10.97
2023-06-19T05:40:09.801Z,10.10
2023-06-19T05:41:43.226Z,9.77
2023-06-19T05:43:16.676Z,10.40
2023-06-19T05:44:50.112Z,10.03
2023-06-19T05:46:23.624Z,10.60
2023-06-19T05:47:57.250Z,11.00
2023-06-19T05:49:32.055Z,10.00
2023-06-19T05:51:05.560Z,10.83
2023-06-19T05:52:42.807Z,10.63
2023-06-19T05:54:16.215Z,10.50
2023-06-19T05:55:49.685Z,10.37
2023-06-19T05:57:23.349Z,11.10
2023-06-19T05:58:56.785Z,10.57
2023-06-19T06:00:31.262Z,10.50
2023-06-19T06:02:05.355Z,9.80
2023-06-19T06:03:39.106Z,9.60
2023-06-19T06:05:13.983Z,10.20
2023-06-19T06:06:47.446Z,9.47
2023-06-19T06:08:20.950Z,10.63
2023-06-19T06:09:54.377Z,10.17
2023-06-19T06:11:27.868Z,10.10
2023-06-19T06:13:03.032Z,10.40
2023-06-19T06:14:38.310Z,10.27
2023-06-19T06:16:11.789Z,10.10
2023-06-19T06:17:48.556Z,9.50
2023-06-19T06:19:23.696Z,9.97
2023-06-19T06:21:00.186Z,9.30
2023-06-19T06:22:33.598Z,9.40
2023-06-19T06:24:07.665Z,10.27
2023-06-19T06:25:41.153Z,10.40
2023-06-19T06:27:14.599Z,9.87
2023-06-19T06:28:48.067Z,9.70
2023-06-19T06:30:21.503Z,9.67
2023-06-19T06:32:05.965Z,9.63
2023-06-19T06:33:39.364Z,9.47
2023-06-19T06:35:12.842Z,9.43
2023-06-19T06:37:00.925Z,9.70
2023-06-19T06:38:39.220Z,10.27
2023-06-19T06:40:15.103Z,9.60
2023-06-19T06:41:48.588Z,9.70
2023-06-19T06:43:22.042Z,9.10
2023-06-19T06:44:55.553Z,9.07
2023-06-19T06:46:29.018Z,8.87
2023-06-19T06:48:02.589Z,9.77
2023-06-19T06:49:37.412Z,8.60
2023-06-19T06:51:11.730Z,9.67
2023-06-19T06:52:46.520Z,8.97
2023-06-19T06:54:20.028Z,9.20
2023-06-19T06:55:53.489Z,9.33
2023-06-19T06:57:26.922Z,8.73
2023-06-19T06:59:00.339Z,9.03
2023-06-19T07:00:33.959Z,9.10
2023-06-19T07:02:07.425Z,9.20
2023-06-19T07:03:40.999Z,9.50
2023-06-19T07:05:14.445Z,8.63
2023-06-19T07:06:48.071Z,9.07
2023-06-19T07:08:22.861Z,9.47
2023-06-19T07:09:56.342Z,9.97
2023-06-19T07:11:29.768Z,8.97
2023-06-19T07:13:03.265Z,9.20
2023-06-19T07:14:36.722Z,8.93
2023-06-19T07:16:10.698Z,9.70
2023-06-19T07:17:44.211Z,8.90
2023-06-19T07:19:17.737Z,7.87
2023-06-19T07:20:51.178Z,9.33
2023-06-19T07:22:24.936Z,9.40
2023-06-19T07:24:00.067Z,8.77
2023-06-19T07:25:34.905Z,8.87
2023-06-19T07:27:08.611Z,8.43
2023-06-19T07:28:43.181Z,8.57
2023-06-19T07:30:17.110Z,8.23
2023-06-19T07:31:50.684Z,8.80
2023-06-19T07:33:24.145Z,8.87
2023-06-19T07:34:57.744Z,8.93
2023-06-19T07:36:31.163Z,8.80
2023-06-19T07:38:04.604Z,8.17
2023-06-19T07:39:39.372Z,8.90
2023-06-19T07:41:12.984Z,8.70
2023-06-19T07:42:46.466Z,8.87
2023-06-19T07:44:22.029Z,9.00
2023-06-19T07:45:55.539Z,8.47
2023-06-19T07:47:29.507Z,8.60
2023-06-19T07:49:02.987Z,8.73
2023-06-19T07:50:36.413Z,8.43
2023-06-19T07:52:11.590Z,8.70
2023-06-19T07:53:45.424Z,8.13
2023-06-19T07:55:20.228Z,8.93
2023-06-19T07:56:53.694Z,8.40
2023-06-19T07:58:27.134Z,8.37
2023-06-19T08:00:00.549Z,8.60
2023-06-19T08:01:34.364Z,8.03
2023-06-19T08:03:08.401Z,8.23
2023-06-19T08:04:42.010Z,7.70
2023-06-19T08:06:15.527Z,9.07
2023-06-19T08:07:48.929Z,8.40
2023-06-19T08:09:23.066Z,7.87
2023-06-19T08:10:57.892Z,8.23
2023-06-19T08:12:31.306Z,8.37
2023-06-19T08:14:04.761Z,7.97
2023-06-19T08:15:38.202Z,8.23
2023-06-19T08:17:11.759Z,9.10
2023-06-19T08:18:45.425Z,8.73
2023-06-19T08:20:18.908Z,8.87
2023-06-19T08:21:53.199Z,8.40
2023-06-19T08:23:26.747Z,8.33
2023-06-19T08:25:00.197Z,8.13
2023-06-19T08:26:35.069Z,8.67
2023-06-19T08:28:09.653Z,8.63
2023-06-19T08:29:44.264Z,8.87
2023-06-19T08:31:18.043Z,8.93
2023-06-19T08:32:51.487Z,7.87
2023-06-19T08:34:24.969Z,8.83
2023-06-19T08:35:58.393Z,8.60
2023-06-19T08:37:32.476Z,8.37
2023-06-19T08:39:06.194Z,7.90
2023-06-19T08:40:39.764Z,8.07
2023-06-19T08:42:14.631Z,8.03
2023-06-19T08:43:48.393Z,8.53
2023-06-19T08:45:22.070Z,8.67
2023-06-19T08:46:55.605Z,8.50
2023-06-19T08:48:29.220Z,8.87
2023-06-19T08:50:03.132Z,8.50
2023-06-19T08:51:36.710Z,8.83
2023-06-19T08:53:12.333Z,8.80
2023-06-19T08:54:45.873Z,8.63
2023-06-19T08:56:19.468Z,8.43
2023-06-19T08:57:54.308Z,9.17
2023-06-19T08:59:29.637Z,8.57
2023-06-19T09:01:03.074Z,9.43
2023-06-19T09:02:39.998Z,9.13
2023-06-19T09:04:14.127Z,9.30
2023-06-19T09:05:51.861Z,9.67
2023-06-19T09:07:26.282Z,9.23
2023-06-19T09:09:03.412Z,9.03
2023-06-19T09:10:38.122Z,8.97
2023-06-19T09:12:12.438Z,9.47
2023-06-19T09:13:58.707Z,9.63
2023-06-19T09:15:33.057Z,8.97
2023-06-19T09:17:10.340Z,9.23
2023-06-19T09:18:45.771Z,8.83
2023-06-19T09:20:28.996Z,9.57
2023-06-19T09:22:02.768Z,9.17
2023-06-19T09:23:36.668Z,9.53
2023-06-19T09:25:12.774Z,9.13
2023-06-19T09:26:46.296Z,9.00
2023-06-19T09:28:20.361Z,8.73
2023-06-19T09:29:55.199Z,8.83
2023-06-19T09:31:35.100Z,9.10
2023-06-19T09:33:09.452Z,9.70
2023-06-19T09:34:43.014Z,9.60
2023-06-19T09:36:17.194Z,9.53
2023-06-19T09:37:51.906Z,9.27
2023-06-19T09:39:27.626Z,9.57
2023-06-19T09:41:03.287Z,9.57
2023-06-19T09:42:37.189Z,8.77
2023-06-19T09:44:13.617Z,9.40
2023-06-19T09:45:50.101Z,9.30
2023-06-19T09:47:25.775Z,9.93
2023-06-19T09:49:02.530Z,9.13
2023-06-19T09:50:36.225Z,9.57
2023-06-19T09:52:09.959Z,9.40
2023-06-19T09:53:43.936Z,9.53
2023-06-19T09:55:18.433Z,9.67
2023-06-19T09:56:52.402Z,9.43
2023-06-19T09:58:25.992Z,9.83
2023-06-19T10:00:02.262Z,10.17
2023-06-19T10:01:47.612Z,9.33
2023-06-19T10:03:21.198Z,9.90
2023-06-19T10:04:56.299Z,9.90
2023-06-19T10:06:31.126Z,10.07
2023-06-19T10:08:05.975Z,9.57
2023-06-19T10:09:39.461Z,9.93
2023-06-19T10:11:12.922Z,9.30
2023-06-19T10:12:46.942Z,9.80
2023-06-19T10:14:20.708Z,10.03
2023-06-19T10:15:54.136Z,9.23
2023-06-19T10:17:33.248Z,9.73
2023-06-19T10:19:14.048Z,8.53
2023-06-19T10:20:48.889Z,9.50
2023-06-19T10:22:23.750Z,9.43
2023-06-19T10:23:57.951Z,9.73
2023-06-19T10:25:32.385Z,9.53
2023-06-19T10:27:06.105Z,9.67
2023-06-19T10:28:39.704Z,9.33
2023-06-19T10:30:19.690Z,9.20
2023-06-19T10:31:53.204Z,9.37
2023-06-19T10:33:29.276Z,9.50
2023-06-19T10:35:02.728Z,9.80
2023-06-19T10:36:36.171Z,9.13
2023-06-19T10:38:09.825Z,9.00
2023-06-19T10:39:43.265Z,8.67
2023-06-19T10:41:17.938Z,9.47
2023-06-19T10:42:51.410Z,8.97
2023-06-19T10:44:27.387Z,9.73
2023-06-19T10:46:01.036Z,9.23
2023-06-19T10:47:35.098Z,8.83
2023-06-19T10:49:12.331Z,8.93
2023-06-19T10:50:45.911Z,9.63
2023-06-19T10:52:19.406Z,8.17
2023-06-19T10:53:52.841Z,8.93
2023-06-19T10:55:26.265Z,9.87
2023-06-19T10:57:04.145Z,9.53
2023-06-19T10:58:37.732Z,9.67
2023-06-19T11:00:13.983Z,9.50
2023-06-19T11:01:48.013Z,9.27
2023-06-19T11:03:22.202Z,9.10
2023-06-19T11:04:57.516Z,9.07
2023-06-19T11:06:31.195Z,8.90
2023-06-19T11:08:04.895Z,9.30
2023-06-19T11:09:37.577Z,9.23
2023-06-19T11:11:10.989Z,8.90
2023-06-19T11:12:45.954Z,9.07
2023-06-19T11:14:19.870Z,8.87
2023-06-19T11:15:53.372Z,9.23
2023-06-19T11:17:26.902Z,9.13
2023-06-19T11:19:00.406Z,9.17
2023-06-19T11:20:45.764Z,9.10
2023-06-19T11:22:19.835Z,8.93
2023-06-19T11:23:53.276Z,9.07
2023-06-19T11:25:27.403Z,9.50
2023-06-19T11:27:00.872Z,9.23
2023-06-19T11:28:34.822Z,9.37
2023-06-19T11:30:09.096Z,7.88
2023-06-19T11:31:42.556Z,8.17
2023-06-19T11:33:23.317Z,8.43
2023-06-19T11:34:57.016Z,8.70
2023-06-19T11:36:31.871Z,8.50
2023-06-19T11:38:06.627Z,8.73
2023-06-19T11:39:40.722Z,8.25
2023-06-19T11:41:14.231Z,8.38
2023-06-19T11:42:49.065Z,8.68
2023-06-19T11:44:22.732Z,7.88
2023-06-19T11:45:56.851Z,8.18
2023-06-19T11:47:32.810Z,8.00
2023-06-19T11:49:15.789Z,6.97
2023-06-19T11:50:49.257Z,7.63
2023-06-19T11:52:24.056Z,7.43
2023-06-19T11:53:58.067Z,7.83
2023-06-19T11:55:31.507Z,7.43
2023-06-19T11:57:05.016Z,7.43
2023-06-19T11:58:38.512Z,7.43
2023-06-19T12:00:18.741Z,6.90
2023-06-19T12:01:52.297Z,7.18
2023-06-19T12:03:26.000Z,7.25
2023-06-19T12:04:59.528Z,7.30
2023-06-19T12:06:33.018Z,6.68
2023-06-19T12:08:08.703Z,6.82
2023-06-19T12:09:42.627Z,6.90
2023-06-19T12:11:16.141Z,6.25
2023-06-19T12:12:49.618Z,6.65
2023-06-19T12:14:23.142Z,7.00
2023-06-19T12:15:56.571Z,6.80
2023-06-19T12:17:31.097Z,6.40
2023-06-19T12:19:04.548Z,7.20
2023-06-19T12:20:37.941Z,7.40
2023-06-19T12:22:11.414Z,7.30
2023-06-19T12:23:46.221Z,6.57
2023-06-19T12:25:19.811Z,6.85
2023-06-19T12:26:53.247Z,7.43
2023-06-19T12:28:26.724Z,7.10
2023-06-19T12:30:00.188Z,6.97
2023-06-19T12:31:34.137Z,7.30
2023-06-19T12:33:07.684Z,6.70
2023-06-19T12:34:41.691Z,7.10
2023-06-19T12:36:15.173Z,6.95
2023-06-19T12:37:48.828Z,9.82
2023-06-19T12:39:23.686Z,7.75
2023-06-19T12:40:57.108Z,7.22
2023-06-19T12:42:30.569Z,8.07
2023-06-19T12:44:04.064Z,8.43
2023-06-19T12:45:37.505Z,8.18
2023-06-19T12:47:11.236Z,8.20
2023-06-19T12:48:44.692Z,8.30
2023-06-19T12:50:18.132Z,9.00
2023-06-19T12:51:53.233Z,8.00
2023-06-19T12:53:30.024Z,8.32
2023-06-19T12:55:05.011Z,8.80
2023-06-19T12:56:38.475Z,8.60
2023-06-19T12:58:12.020Z,8.47
2023-06-19T12:59:45.537Z,8.17
2023-06-19T13:01:19.311Z,8.33
2023-06-19T13:02:53.062Z,8.93
2023-06-19T13:04:26.590Z,8.87
2023-06-19T13:06:00.079Z,8.10
2023-06-19T13:07:33.556Z,8.40
2023-06-19T13:09:08.401Z,9.37
2023-06-19T13:10:43.289Z,9.70
2023-06-19T13:12:16.710Z,9.10
2023-06-19T13:13:50.281Z,8.60
2023-06-19T13:15:23.687Z,9.03
2023-06-19T13:16:58.627Z,9.17
2023-06-19T13:18:32.079Z,9.73
2023-06-19T13:20:06.141Z,9.77
2023-06-19T13:21:39.594Z,9.90
2023-06-19T13:23:13.054Z,10.20
2023-06-19T13:24:46.589Z,9.47
2023-06-19T13:26:21.450Z,9.57
2023-06-19T13:27:54.927Z,9.80
2023-06-19T13:29:28.357Z,10.17
2023-06-19T13:31:01.849Z,9.60
2023-06-19T13:32:35.314Z,9.37
2023-06-19T13:34:08.809Z,9.87
2023-06-19T13:35:42.218Z,10.10
2023-06-19T13:37:15.770Z,9.63
2023-06-19T13:38:49.717Z,10.27
2023-06-19T13:40:23.480Z,10.37
2023-06-19T13:42:02.147Z,9.27
2023-06-19T13:43:35.669Z,9.97
2023-06-19T13:45:09.748Z,9.80
2023-06-19T13:46:43.554Z,9.27
2023-06-19T13:48:17.092Z,9.25
2023-06-19T13:49:51.023Z,9.30
2023-06-19T13:51:24.551Z,10.30
2023-06-19T13:52:57.966Z,9.57
2023-06-19T13:54:31.619Z,9.90
2023-06-19T13:56:05.233Z,9.57
2023-06-19T13:57:41.330Z,10.23
2023-06-19T13:59:14.807Z,10.32
2023-06-19T14:00:48.250Z,10.60
2023-06-19T14:02:21.832Z,10.43
2023-06-19T14:03:55.256Z,10.03
2023-06-19T14:05:28.701Z,10.30
2023-06-19T14:07:02.227Z,10.50
2023-06-19T14:08:35.838Z,10.35
2023-06-19T14:10:09.774Z,10.70
2023-06-19T14:11:45.075Z,11.02
2023-06-19T14:13:19.913Z,10.73
2023-06-19T14:14:53.905Z,9.95
2023-06-19T14:16:27.412Z,10.65
2023-06-19T14:18:01.027Z,10.85
2023-06-19T14:19:34.480Z,10.40
2023-06-19T14:21:07.929Z,10.90
2023-06-19T14:22:41.363Z,10.83
2023-06-19T14:24:14.827Z,10.97
2023-06-19T14:25:48.389Z,11.70
2023-06-19T14:27:21.864Z,11.37
2023-06-19T14:28:58.341Z,11.03
2023-06-19T14:30:31.895Z,11.07
2023-06-19T14:32:05.668Z,11.63
2023-06-19T14:33:39.145Z,11.53
2023-06-19T14:35:12.651Z,11.37
2023-06-19T14:36:46.101Z,10.90
2023-06-19T14:38:19.637Z,11.03
2023-06-19T14:39:53.047Z,11.80
2023-06-19T14:41:26.518Z,11.13
2023-06-19T14:42:59.933Z,11.57
2023-06-19T14:44:34.773Z,11.37
2023-06-19T14:46:08.220Z,11.53
2023-06-19T14:47:41.874Z,11.30
2023-06-19T14:49:15.933Z,11.60
2023-06-19T14:50:49.469Z,12.17
2023-06-19T14:52:23.158Z,11.70
2023-06-19T14:53:56.633Z,11.53
2023-06-19T14:55:30.084Z,11.43
2023-06-19T14:57:03.488Z,11.33
2023-06-19T14:58:36.914Z,11.80
2023-06-19T15:00:12.571Z,11.03
2023-06-19T15:01:46.930Z,12.40
2023-06-19T15:03:20.476Z,10.80
2023-06-19T15:05:05.903Z,11.80
2023-06-19T15:06:40.299Z,11.83
2023-06-19T15:08:13.813Z,11.53
2023-06-19T15:09:47.278Z,12.03
2023-06-19T15:11:20.790Z,11.17
2023-06-19T15:12:54.204Z,11.40
2023-06-19T15:14:27.693Z,11.00
2023-06-19T15:16:03.654Z,11.53
2023-06-19T15:17:37.225Z,11.10
2023-06-19T15:19:10.906Z,11.80
2023-06-19T15:20:44.466Z,10.80
2023-06-19T15:22:18.116Z,11.40
2023-06-19T15:23:51.559Z,11.90
2023-06-19T15:25:24.948Z,11.27
2023-06-19T15:27:00.385Z,11.52
2023-06-19T15:28:35.116Z,12.00
2023-06-19T15:30:09.197Z,11.53
2023-06-19T15:31:44.026Z,11.23
2023-06-19T15:33:19.131Z,11.57
2023-06-19T15:34:52.795Z,11.75
2023-06-19T15:36:26.864Z,11.37
2023-06-19T15:38:00.581Z,11.30
2023-06-19T15:39:34.009Z,11.90
2023-06-19T15:41:07.437Z,11.57
2023-06-19T15:42:40.941Z,12.27
2023-06-19T15:44:14.590Z,11.00
2023-06-19T15:45:48.187Z,11.73
2023-06-19T15:47:23.038Z,12.17
2023-06-19T15:48:56.460Z,11.30
2023-06-19T15:50:29.995Z,12.03
2023-06-19T15:52:03.445Z,11.27
2023-06-19T15:53:36.897Z,12.03
2023-06-19T15:55:10.623Z,11.60
2023-06-19T15:56:46.006Z,11.43
2023-06-19T15:58:19.555Z,11.77
2023-06-19T15:59:53.853Z,11.77
2023-06-19T16:01:27.535Z,11.57
2023-06-19T16:03:02.520Z,11.70
2023-06-19T16:04:36.276Z,11.70
2023-06-19T16:06:09.730Z,11.77
2023-06-19T16:07:43.200Z,12.17
2023-06-19T16:09:16.645Z,11.00
2023-06-19T16:10:50.113Z,12.00
2023-06-19T16:12:23.552Z,10.97
2023-06-19T16:13:57.117Z,11.00
2023-06-19T16:15:30.593Z,11.07
2023-06-19T16:17:07.068Z,11.63
2023-06-19T16:18:41.895Z,12.10
2023-06-19T16:20:15.379Z,11.80
2023-06-19T16:21:48.867Z,12.00
2023-06-19T16:23:22.449Z,11.83
2023-06-19T16:24:55.897Z,11.80
2023-06-19T16:26:29.382Z,12.53
2023-06-19T16:28:02.829Z,11.57
2023-06-19T16:29:36.365Z,11.60
2023-06-19T16:31:11.164Z,11.50
2023-06-19T16:32:44.800Z,12.90
2023-06-19T16:34:19.651Z,12.13
2023-06-19T16:35:53.085Z,11.30
2023-06-19T16:37:26.739Z,12.20
2023-06-19T16:39:00.196Z,11.83
2023-06-19T16:40:33.807Z,12.07
2023-06-19T16:42:08.317Z,12.10
2023-06-19T16:43:41.764Z,11.83
2023-06-19T16:45:15.250Z,12.23
2023-06-19T16:46:49.664Z,11.97
2023-06-19T16:48:23.234Z,12.00
2023-06-19T16:49:58.094Z,11.57
2023-06-19T16:51:31.622Z,12.03
2023-06-19T16:53:07.076Z,11.47
2023-06-19T16:54:40.755Z,11.67
2023-06-19T16:56:14.150Z,11.40
2023-06-19T16:57:47.904Z,12.67
2023-06-19T16:59:21.384Z,11.43
2023-06-19T17:00:55.233Z,12.03
2023-06-19T17:02:28.914Z,11.67
2023-06-19T17:04:02.582Z,12.70
2023-06-19T17:05:37.356Z,12.20
2023-06-19T17:07:10.861Z,12.57
2023-06-19T17:08:44.361Z,11.40
2023-06-19T17:10:17.962Z,11.87
2023-06-19T17:11:52.901Z,12.10
2023-06-19T17:13:26.317Z,12.27
2023-06-19T17:15:00.379Z,12.17
2023-06-19T17:16:33.928Z,11.70
2023-06-19T17:18:07.807Z,11.67
2023-06-19T17:19:40.360Z,11.73
2023-06-19T17:21:15.190Z,11.00
2023-06-19T17:22:48.692Z,12.07
2023-06-19T17:24:22.879Z,12.40
2023-06-19T17:25:56.411Z,12.20
2023-06-19T17:27:29.872Z,12.40
2023-06-19T17:29:05.489Z,11.43
2023-06-19T17:30:41.552Z,11.83
2023-06-19T17:32:15.089Z,12.53
2023-06-19T17:33:48.522Z,11.10
2023-06-19T17:35:24.326Z,11.03
2023-06-19T17:36:59.606Z,13.20
2023-06-19T17:38:33.081Z,11.17
2023-06-19T17:40:06.987Z,10.93
2023-06-19T17:41:40.416Z,9.53
2023-06-19T17:43:13.918Z,10.07
2023-06-19T17:44:47.446Z,10.83
2023-06-19T17:46:21.257Z,10.50
2023-06-19T17:47:54.740Z,9.40
2023-06-19T17:49:28.238Z,9.47
2023-06-19T17:51:01.672Z,9.30
2023-06-19T17:52:36.533Z,9.30
2023-06-19T17:54:09.985Z,9.53
2023-06-19T17:55:44.423Z,9.30
2023-06-19T17:57:18.002Z,8.83
2023-06-19T17:58:51.524Z,9.60
2023-06-19T18:00:25.228Z,10.00
2023-06-19T18:01:59.111Z,10.17
2023-06-19T18:03:32.850Z,9.03
2023-06-19T18:05:06.922Z,9.87
2023-06-19T18:06:40.401Z,9.33
2023-06-19T18:08:15.201Z,9.67
2023-06-19T18:09:48.838Z,10.17
2023-06-19T18:11:22.340Z,9.57
2023-06-19T18:12:55.801Z,9.53
2023-06-19T18:14:29.239Z,9.90
2023-06-19T18:16:11.997Z,9.73
2023-06-19T18:17:46.158Z,9.70
2023-06-19T18:19:19.670Z,9.53
2023-06-19T18:20:53.148Z,10.13
2023-06-19T18:22:26.962Z,10.50
2023-06-19T18:24:04.242Z,10.87
2023-06-19T18:25:39.023Z,10.50
2023-06-19T18:27:12.462Z,9.87
2023-06-19T18:28:45.916Z,10.53
2023-06-19T18:30:19.328Z,9.57
2023-06-19T18:31:53.057Z,10.63
2023-06-19T18:33:26.463Z,10.43
2023-06-19T18:35:00.145Z,10.60
2023-06-19T18:36:33.760Z,10.53
2023-06-19T18:38:07.289Z,11.10
2023-06-19T18:39:42.135Z,10.70
2023-06-19T18:41:15.553Z,10.57
2023-06-19T18:42:48.996Z,10.57
2023-06-19T18:44:22.432Z,10.90
2023-06-19T18:45:55.888Z,10.97
2023-06-19T18:47:29.406Z,11.53
2023-06-19T18:49:02.833Z,11.63
2023-06-19T18:50:37.150Z,10.73
2023-06-19T18:52:10.726Z,12.03
2023-06-19T18:53:44.178Z,11.10
2023-06-19T18:55:19.016Z,11.13
2023-06-19T18:56:52.504Z,11.03
2023-06-19T18:58:25.985Z,12.90
2023-06-19T18:59:59.730Z,12.20
2023-06-19T19:01:33.255Z,11.87
2023-06-19T19:03:08.570Z,12.03
2023-06-19T19:04:42.962Z,12.83
2023-06-19T19:06:18.452Z,13.17
2023-06-19T19:07:52.279Z,12.57
2023-06-19T19:09:25.695Z,13.43
2023-06-19T19:11:00.593Z,13.43
2023-06-19T19:12:34.033Z,13.20
2023-06-19T19:14:07.536Z,13.77
2023-06-19T19:15:40.938Z,13.03
2023-06-19T19:17:14.420Z,14.10
2023-06-19T19:18:48.008Z,14.07
2023-06-19T19:20:21.496Z,13.50
2023-06-19T19:21:54.924Z,13.90
2023-06-19T19:23:28.375Z,14.57
2023-06-19T19:25:01.814Z,14.33
2023-06-19T19:26:36.762Z,15.50
2023-06-19T19:28:14.840Z,14.40
2023-06-19T19:29:48.383Z,14.77
2023-06-19T19:31:21.860Z,15.03
2023-06-19T19:32:55.558Z,14.27
2023-06-19T19:34:29.805Z,15.40
2023-06-19T19:36:03.323Z,15.07
2023-06-19T19:37:36.808Z,15.43
2023-06-19T19:39:10.368Z,15.60
2023-06-19T19:40:43.792Z,16.90
2023-06-19T19:42:19.205Z,16.53
2023-06-19T19:43:52.683Z,15.93
2023-06-19T19:45:26.140Z,15.03
2023-06-19T19:46:59.589Z,15.50
2023-06-19T19:48:33.027Z,15.67
2023-06-19T19:50:06.777Z,15.70
2023-06-19T19:51:40.284Z,15.53
2023-06-19T19:53:13.737Z,15.83
2023-06-19T19:54:47.786Z,15.63
2023-06-19T19:56:21.207Z,15.73
2023-06-19T19:57:56.002Z,16.03
2023-06-19T19:59:29.459Z,16.83
2023-06-19T20:01:02.904Z,15.57
2023-06-19T20:02:36.412Z,15.70
2023-06-19T20:04:09.933Z,16.80
2023-06-19T20:05:43.470Z,16.30
2023-06-19T20:07:16.886Z,16.73
2023-06-19T20:08:50.277Z,17.00
2023-06-19T20:10:23.150Z,15.77
2023-06-19T20:12:03.026Z,16.43
2023-06-19T20:13:51.154Z,16.43
2023-06-19T20:15:24.600Z,16.33
2023-06-19T20:16:58.037Z,16.37
2023-06-19T20:18:31.464Z,17.53
2023-06-19T20:20:06.744Z,17.10
2023-06-19T20:21:40.638Z,15.93
2023-06-19T20:23:14.064Z,16.27
2023-06-19T20:24:47.630Z,16.67
2023-06-19T20:26:21.162Z,17.17
2023-06-19T20:28:07.191Z,17.53
2023-06-19T20:29:43.538Z,17.40